<?xml version="1.0" encoding="UTF-8" standalone="no" ?>
<gpx xmlns="http://www.topografix.com/GPX/1/1" xmlns:xsi="http://www.w3.org/2001/XMLSchema-instance" xsi:schemaLocation="http://www.topografix.com/GPX/1/1 http://www.topografix.com/GPX/1/1/gpx.xsd" version="1.1" creator="VisuGPX - https://www.visugpx.com">
  <metadata>
    <name>Col de l'Arc - St Paul de Varces</name>
    <desc><![CDATA[VTT]]></desc>
  </metadata>
  <trk>
    <name><![CDATA[Col de l'Arc - Bacon]]></name>
    <trkseg>
      <trkpt lat="45.09388" lon="5.60136">
        <ele>1427.7</ele>
        <time>2017-06-13T05:52:10.000Z</time>
      </trkpt>
      <trkpt lat="45.09339" lon="5.60122">
        <ele>1445</ele>
        <time>2017-06-13T05:52:20.000Z</time>
      </trkpt>
      <trkpt lat="45.09278" lon="5.60077">
        <ele>1455.5</ele>
        <time>2017-06-13T05:52:40.000Z</time>
      </trkpt>
      <trkpt lat="45.09211" lon="5.60077">
        <ele>1466.4</ele>
        <time>2017-06-13T05:53:00.000Z</time>
      </trkpt>
      <trkpt lat="45.09158" lon="5.60099">
        <ele>1469.8</ele>
        <time>2017-06-13T05:53:20.000Z</time>
      </trkpt>
      <trkpt lat="45.0914" lon="5.60114">
        <ele>1473.3</ele>
        <time>2017-06-13T05:53:30.000Z</time>
      </trkpt>
      <trkpt lat="45.09098" lon="5.60133">
        <ele>1478</ele>
        <time>2017-06-13T05:53:50.000Z</time>
      </trkpt>
      <trkpt lat="45.09076" lon="5.60173">
        <ele>1483</ele>
        <time>2017-06-13T05:54:10.000Z</time>
      </trkpt>
      <trkpt lat="45.09062" lon="5.60188">
        <ele>1485.7</ele>
        <time>2017-06-13T05:54:20.000Z</time>
      </trkpt>
      <trkpt lat="45.09031" lon="5.60213">
        <ele>1488.7</ele>
        <time>2017-06-13T05:54:40.000Z</time>
      </trkpt>
      <trkpt lat="45.08981" lon="5.60224">
        <ele>1491.3</ele>
        <time>2017-06-13T05:55:00.000Z</time>
      </trkpt>
      <trkpt lat="45.0895" lon="5.60234">
        <ele>1493.6</ele>
        <time>2017-06-13T05:55:20.000Z</time>
      </trkpt>
      <trkpt lat="45.08933" lon="5.60235">
        <ele>1494.1</ele>
        <time>2017-06-13T05:55:40.000Z</time>
      </trkpt>
      <trkpt lat="45.08925" lon="5.6023">
        <ele>1492.9</ele>
        <time>2017-06-13T05:55:50.000Z</time>
      </trkpt>
      <trkpt lat="45.08899" lon="5.60245">
        <ele>1487.8</ele>
        <time>2017-06-13T05:56:10.000Z</time>
      </trkpt>
      <trkpt lat="45.08873" lon="5.60267">
        <ele>1485.8</ele>
        <time>2017-06-13T05:56:30.000Z</time>
      </trkpt>
      <trkpt lat="45.08869" lon="5.60272">
        <ele>1485.8</ele>
        <time>2017-06-13T05:56:40.000Z</time>
      </trkpt>
      <trkpt lat="45.08849" lon="5.60289">
        <ele>1486.7</ele>
        <time>2017-06-13T05:57:00.000Z</time>
      </trkpt>
      <trkpt lat="45.08841" lon="5.60317">
        <ele>1484.1</ele>
        <time>2017-06-13T05:57:19.000Z</time>
      </trkpt>
      <trkpt lat="45.08839" lon="5.60327">
        <ele>1484.1</ele>
        <time>2017-06-13T05:57:39.000Z</time>
      </trkpt>
      <trkpt lat="45.08831" lon="5.60343">
        <ele>1490.2</ele>
        <time>2017-06-13T05:57:49.000Z</time>
      </trkpt>
      <trkpt lat="45.08821" lon="5.60368">
        <ele>1499</ele>
        <time>2017-06-13T05:58:09.000Z</time>
      </trkpt>
      <trkpt lat="45.08814" lon="5.60382">
        <ele>1509.6</ele>
        <time>2017-06-13T05:58:29.000Z</time>
      </trkpt>
      <trkpt lat="45.08812" lon="5.60392">
        <ele>1508.7</ele>
        <time>2017-06-13T05:58:39.000Z</time>
      </trkpt>
      <trkpt lat="45.08799" lon="5.60425">
        <ele>1505.6</ele>
        <time>2017-06-13T05:58:59.000Z</time>
      </trkpt>
      <trkpt lat="45.08794" lon="5.60429">
        <ele>1509.7</ele>
        <time>2017-06-13T05:59:09.000Z</time>
      </trkpt>
      <trkpt lat="45.08795" lon="5.60444">
        <ele>1499.7</ele>
        <time>2017-06-13T05:59:19.000Z</time>
      </trkpt>
      <trkpt lat="45.08785" lon="5.6045">
        <ele>1501</ele>
        <time>2017-06-13T05:59:39.000Z</time>
      </trkpt>
      <trkpt lat="45.08779" lon="5.60465">
        <ele>1499.9</ele>
        <time>2017-06-13T05:59:59.000Z</time>
      </trkpt>
      <trkpt lat="45.08765" lon="5.60479">
        <ele>1513.1</ele>
        <time>2017-06-13T06:00:19.000Z</time>
      </trkpt>
      <trkpt lat="45.0876" lon="5.60491">
        <ele>1511.6</ele>
        <time>2017-06-13T06:00:29.000Z</time>
      </trkpt>
      <trkpt lat="45.0875" lon="5.60509">
        <ele>1514</ele>
        <time>2017-06-13T06:00:49.000Z</time>
      </trkpt>
      <trkpt lat="45.08741" lon="5.60511">
        <ele>1515.5</ele>
        <time>2017-06-13T06:01:19.000Z</time>
      </trkpt>
      <trkpt lat="45.08723" lon="5.60517">
        <ele>1517.2</ele>
        <time>2017-06-13T06:01:39.000Z</time>
      </trkpt>
      <trkpt lat="45.08709" lon="5.60523">
        <ele>1517.1</ele>
        <time>2017-06-13T06:01:59.000Z</time>
      </trkpt>
      <trkpt lat="45.08693" lon="5.60532">
        <ele>1517.5</ele>
        <time>2017-06-13T06:02:09.000Z</time>
      </trkpt>
      <trkpt lat="45.08662" lon="5.60516">
        <ele>1517.4</ele>
        <time>2017-06-13T06:02:30.000Z</time>
      </trkpt>
      <trkpt lat="45.08653" lon="5.60518">
        <ele>1517</ele>
        <time>2017-06-13T06:02:40.000Z</time>
      </trkpt>
      <trkpt lat="45.08643" lon="5.60529">
        <ele>1516</ele>
        <time>2017-06-13T06:02:50.000Z</time>
      </trkpt>
      <trkpt lat="45.0864" lon="5.60538">
        <ele>1517.2</ele>
        <time>2017-06-13T06:03:00.000Z</time>
      </trkpt>
      <trkpt lat="45.08627" lon="5.60537">
        <ele>1526.1</ele>
        <time>2017-06-13T06:03:20.000Z</time>
      </trkpt>
      <trkpt lat="45.08615" lon="5.60549">
        <ele>1533.6</ele>
        <time>2017-06-13T06:03:40.000Z</time>
      </trkpt>
      <trkpt lat="45.0861" lon="5.60558">
        <ele>1537.1</ele>
        <time>2017-06-13T06:03:50.000Z</time>
      </trkpt>
      <trkpt lat="45.08608" lon="5.60574">
        <ele>1545.4</ele>
        <time>2017-06-13T06:04:30.000Z</time>
      </trkpt>
      <trkpt lat="45.08604" lon="5.60582">
        <ele>1537.6</ele>
        <time>2017-06-13T06:04:50.000Z</time>
      </trkpt>
      <trkpt lat="45.0859" lon="5.60579">
        <ele>1534.2</ele>
        <time>2017-06-13T06:05:20.000Z</time>
      </trkpt>
      <trkpt lat="45.08581" lon="5.60585">
        <ele>1534.8</ele>
        <time>2017-06-13T06:05:40.000Z</time>
      </trkpt>
      <trkpt lat="45.0857" lon="5.60597">
        <ele>1540.4</ele>
        <time>2017-06-13T06:06:00.000Z</time>
      </trkpt>
      <trkpt lat="45.0856" lon="5.60597">
        <ele>1544</ele>
        <time>2017-06-13T06:06:10.000Z</time>
      </trkpt>
      <trkpt lat="45.08552" lon="5.60613">
        <ele>1551</ele>
        <time>2017-06-13T06:06:30.000Z</time>
      </trkpt>
      <trkpt lat="45.08545" lon="5.6063">
        <ele>1546.9</ele>
        <time>2017-06-13T06:06:50.000Z</time>
      </trkpt>
      <trkpt lat="45.08543" lon="5.60639">
        <ele>1543.7</ele>
        <time>2017-06-13T06:07:00.000Z</time>
      </trkpt>
      <trkpt lat="45.0853" lon="5.60654">
        <ele>1547.1</ele>
        <time>2017-06-13T06:07:20.000Z</time>
      </trkpt>
      <trkpt lat="45.08517" lon="5.60644">
        <ele>1555.4</ele>
        <time>2017-06-13T06:07:30.000Z</time>
      </trkpt>
      <trkpt lat="45.08481" lon="5.6065">
        <ele>1562.1</ele>
        <time>2017-06-13T06:07:50.000Z</time>
      </trkpt>
      <trkpt lat="45.08462" lon="5.60654">
        <ele>1566.9</ele>
        <time>2017-06-13T06:08:10.000Z</time>
      </trkpt>
      <trkpt lat="45.0846" lon="5.60663">
        <ele>1570.5</ele>
        <time>2017-06-13T06:08:20.000Z</time>
      </trkpt>
      <trkpt lat="45.08449" lon="5.60672">
        <ele>1573.7</ele>
        <time>2017-06-13T06:08:40.000Z</time>
      </trkpt>
      <trkpt lat="45.08437" lon="5.60686">
        <ele>1578.9</ele>
        <time>2017-06-13T06:09:10.000Z</time>
      </trkpt>
      <trkpt lat="45.08427" lon="5.60695">
        <ele>1570.9</ele>
        <time>2017-06-13T06:09:20.000Z</time>
      </trkpt>
      <trkpt lat="45.0841" lon="5.60707">
        <ele>1572.1</ele>
        <time>2017-06-13T06:09:40.000Z</time>
      </trkpt>
      <trkpt lat="45.084" lon="5.60714">
        <ele>1574.2</ele>
        <time>2017-06-13T06:09:50.000Z</time>
      </trkpt>
      <trkpt lat="45.08394" lon="5.60717">
        <ele>1578.1</ele>
        <time>2017-06-13T06:10:00.000Z</time>
      </trkpt>
      <trkpt lat="45.08387" lon="5.60723">
        <ele>1577.9</ele>
        <time>2017-06-13T06:10:10.000Z</time>
      </trkpt>
      <trkpt lat="45.08381" lon="5.60728">
        <ele>1584.4</ele>
        <time>2017-06-13T06:10:30.000Z</time>
      </trkpt>
      <trkpt lat="45.08376" lon="5.60739">
        <ele>1590.5</ele>
        <time>2017-06-13T06:10:50.000Z</time>
      </trkpt>
      <trkpt lat="45.08369" lon="5.60747">
        <ele>1596.1</ele>
        <time>2017-06-13T06:11:10.000Z</time>
      </trkpt>
      <trkpt lat="45.08365" lon="5.60752">
        <ele>1599.8</ele>
        <time>2017-06-13T06:11:40.000Z</time>
      </trkpt>
      <trkpt lat="45.08361" lon="5.6076">
        <ele>1604</ele>
        <time>2017-06-13T06:11:50.000Z</time>
      </trkpt>
      <trkpt lat="45.08359" lon="5.60767">
        <ele>1605.4</ele>
        <time>2017-06-13T06:12:00.000Z</time>
      </trkpt>
      <trkpt lat="45.08359" lon="5.60777">
        <ele>1600.3</ele>
        <time>2017-06-13T06:12:10.000Z</time>
      </trkpt>
      <trkpt lat="45.08346" lon="5.60786">
        <ele>1604.3</ele>
        <time>2017-06-13T06:12:30.000Z</time>
      </trkpt>
      <trkpt lat="45.08339" lon="5.608">
        <ele>1605.8</ele>
        <time>2017-06-13T06:12:50.000Z</time>
      </trkpt>
      <trkpt lat="45.08336" lon="5.60815">
        <ele>1610.9</ele>
        <time>2017-06-13T06:13:10.000Z</time>
      </trkpt>
      <trkpt lat="45.08334" lon="5.60824">
        <ele>1612.2</ele>
        <time>2017-06-13T06:13:20.000Z</time>
      </trkpt>
      <trkpt lat="45.08342" lon="5.60841">
        <ele>1618.6</ele>
        <time>2017-06-13T06:13:40.000Z</time>
      </trkpt>
      <trkpt lat="45.08338" lon="5.60849">
        <ele>1620</ele>
        <time>2017-06-13T06:13:50.000Z</time>
      </trkpt>
      <trkpt lat="45.08335" lon="5.6086">
        <ele>1620.3</ele>
        <time>2017-06-13T06:14:00.000Z</time>
      </trkpt>
      <trkpt lat="45.0833" lon="5.60882">
        <ele>1618.4</ele>
        <time>2017-06-13T06:14:30.000Z</time>
      </trkpt>
      <trkpt lat="45.08324" lon="5.60901">
        <ele>1623.4</ele>
        <time>2017-06-13T06:14:50.000Z</time>
      </trkpt>
      <trkpt lat="45.08326" lon="5.60921">
        <ele>1627.7</ele>
        <time>2017-06-13T06:15:10.000Z</time>
      </trkpt>
      <trkpt lat="45.08316" lon="5.60932">
        <ele>1630</ele>
        <time>2017-06-13T06:15:40.000Z</time>
      </trkpt>
      <trkpt lat="45.08305" lon="5.60944">
        <ele>1630.8</ele>
        <time>2017-06-13T06:16:00.000Z</time>
      </trkpt>
      <trkpt lat="45.08298" lon="5.60957">
        <ele>1629.4</ele>
        <time>2017-06-13T06:16:20.000Z</time>
      </trkpt>
      <trkpt lat="45.08295" lon="5.60964">
        <ele>1629.8</ele>
        <time>2017-06-13T06:16:30.000Z</time>
      </trkpt>
      <trkpt lat="45.08291" lon="5.60974">
        <ele>1629.4</ele>
        <time>2017-06-13T06:16:50.000Z</time>
      </trkpt>
      <trkpt lat="45.08294" lon="5.6099">
        <ele>1632.6</ele>
        <time>2017-06-13T06:17:10.000Z</time>
      </trkpt>
      <trkpt lat="45.08279" lon="5.61001">
        <ele>1638.3</ele>
        <time>2017-06-13T06:17:40.000Z</time>
      </trkpt>
      <trkpt lat="45.08277" lon="5.61008">
        <ele>1638.9</ele>
        <time>2017-06-13T06:18:00.000Z</time>
      </trkpt>
      <trkpt lat="45.08278" lon="5.61019">
        <ele>1638.6</ele>
        <time>2017-06-13T06:18:20.000Z</time>
      </trkpt>
      <trkpt lat="45.08279" lon="5.61027">
        <ele>1636.5</ele>
        <time>2017-06-13T06:18:30.000Z</time>
      </trkpt>
      <trkpt lat="45.08283" lon="5.61038">
        <ele>1639.7</ele>
        <time>2017-06-13T06:18:50.000Z</time>
      </trkpt>
      <trkpt lat="45.08277" lon="5.61046">
        <ele>1637.6</ele>
        <time>2017-06-13T06:19:30.000Z</time>
      </trkpt>
      <trkpt lat="45.08269" lon="5.61049">
        <ele>1640.8</ele>
        <time>2017-06-13T06:20:00.000Z</time>
      </trkpt>
      <trkpt lat="45.08264" lon="5.61048">
        <ele>1656.9</ele>
        <time>2017-06-13T06:20:20.000Z</time>
      </trkpt>
      <trkpt lat="45.08256" lon="5.61051">
        <ele>1660</ele>
        <time>2017-06-13T06:20:50.000Z</time>
      </trkpt>
      <trkpt lat="45.08244" lon="5.61048">
        <ele>1666.3</ele>
        <time>2017-06-13T06:21:20.000Z</time>
      </trkpt>
      <trkpt lat="45.08228" lon="5.61051">
        <ele>1667.6</ele>
        <time>2017-06-13T06:22:10.000Z</time>
      </trkpt>
      <trkpt lat="45.08222" lon="5.61046">
        <ele>1673.9</ele>
        <time>2017-06-13T06:22:20.000Z</time>
      </trkpt>
      <trkpt lat="45.08217" lon="5.61043">
        <ele>1677.3</ele>
        <time>2017-06-13T06:22:30.000Z</time>
      </trkpt>
      <trkpt lat="45.08217" lon="5.61052">
        <ele>1686.4</ele>
        <time>2017-06-13T06:22:50.000Z</time>
      </trkpt>
      <trkpt lat="45.08219" lon="5.6106">
        <ele>1688.7</ele>
        <time>2017-06-13T06:23:00.000Z</time>
      </trkpt>
      <trkpt lat="45.08225" lon="5.6108">
        <ele>1691</ele>
        <time>2017-06-13T06:23:20.000Z</time>
      </trkpt>
      <trkpt lat="45.08231" lon="5.61087">
        <ele>1694.7</ele>
        <time>2017-06-13T06:23:30.000Z</time>
      </trkpt>
      <trkpt lat="45.08241" lon="5.61093">
        <ele>1695.8</ele>
        <time>2017-06-13T06:23:40.000Z</time>
      </trkpt>
      <trkpt lat="45.08258" lon="5.61096">
        <ele>1697.2</ele>
        <time>2017-06-13T06:23:50.000Z</time>
      </trkpt>
      <trkpt lat="45.08278" lon="5.6109">
        <ele>1700.7</ele>
        <time>2017-06-13T06:24:00.000Z</time>
      </trkpt>
      <trkpt lat="45.08308" lon="5.61079">
        <ele>1721.7</ele>
        <time>2017-06-13T06:24:20.000Z</time>
      </trkpt>
      <trkpt lat="45.08313" lon="5.61081">
        <ele>1722.8</ele>
        <time>2017-06-13T06:24:30.000Z</time>
      </trkpt>
      <trkpt lat="45.0832" lon="5.6109">
        <ele>1715.9</ele>
        <time>2017-06-13T06:24:50.000Z</time>
      </trkpt>
      <trkpt lat="45.08329" lon="5.61124">
        <ele>1706.1</ele>
        <time>2017-06-13T06:25:10.000Z</time>
      </trkpt>
      <trkpt lat="45.08337" lon="5.61166">
        <ele>1706.8</ele>
        <time>2017-06-13T06:25:30.000Z</time>
      </trkpt>
      <trkpt lat="45.08341" lon="5.61192">
        <ele>1713.8</ele>
        <time>2017-06-13T06:25:50.000Z</time>
      </trkpt>
      <trkpt lat="45.0834" lon="5.61202">
        <ele>1711.1</ele>
        <time>2017-06-13T06:26:00.000Z</time>
      </trkpt>
      <trkpt lat="45.08339" lon="5.61227">
        <ele>1710.3</ele>
        <time>2017-06-13T06:26:20.000Z</time>
      </trkpt>
      <trkpt lat="45.08341" lon="5.61247">
        <ele>1714.6</ele>
        <time>2017-06-13T06:26:40.000Z</time>
      </trkpt>
      <trkpt lat="45.08337" lon="5.61265">
        <ele>1718</ele>
        <time>2017-06-13T06:27:00.000Z</time>
      </trkpt>
      <trkpt lat="45.08336" lon="5.61274">
        <ele>1722.1</ele>
        <time>2017-06-13T06:27:10.000Z</time>
      </trkpt>
      <trkpt lat="45.08333" lon="5.61292">
        <ele>1729.6</ele>
        <time>2017-06-13T06:27:30.000Z</time>
      </trkpt>
      <trkpt lat="45.08329" lon="5.61308">
        <ele>1734.8</ele>
        <time>2017-06-13T06:27:50.000Z</time>
      </trkpt>
      <trkpt lat="45.08327" lon="5.61315">
        <ele>1738.5</ele>
        <time>2017-06-13T06:28:00.000Z</time>
      </trkpt>
      <trkpt lat="45.08318" lon="5.61335">
        <ele>1739.5</ele>
        <time>2017-06-13T06:28:20.000Z</time>
      </trkpt>
      <trkpt lat="45.08314" lon="5.61345">
        <ele>1741.1</ele>
        <time>2017-06-13T06:28:30.000Z</time>
      </trkpt>
      <trkpt lat="45.08313" lon="5.61356">
        <ele>1744.4</ele>
        <time>2017-06-13T06:28:40.000Z</time>
      </trkpt>
      <trkpt lat="45.08294" lon="5.61357">
        <ele>1748.2</ele>
        <time>2017-06-13T06:31:20.000Z</time>
      </trkpt>
      <trkpt lat="45.08271" lon="5.61356">
        <ele>1747.4</ele>
        <time>2017-06-13T06:31:30.000Z</time>
      </trkpt>
      <trkpt lat="45.08245" lon="5.61362">
        <ele>1753.8</ele>
        <time>2017-06-13T06:31:50.000Z</time>
      </trkpt>
      <trkpt lat="45.08221" lon="5.61363">
        <ele>1761.3</ele>
        <time>2017-06-13T06:32:00.000Z</time>
      </trkpt>
      <trkpt lat="45.08201" lon="5.61352">
        <ele>1763.3</ele>
        <time>2017-06-13T06:32:20.000Z</time>
      </trkpt>
      <trkpt lat="45.0817" lon="5.6135">
        <ele>1759</ele>
        <time>2017-06-13T06:32:40.000Z</time>
      </trkpt>
      <trkpt lat="45.08106" lon="5.61386">
        <ele>1743.8</ele>
        <time>2017-06-13T06:33:00.000Z</time>
      </trkpt>
      <trkpt lat="45.08086" lon="5.614">
        <ele>1728.9</ele>
        <time>2017-06-13T06:33:10.000Z</time>
      </trkpt>
      <trkpt lat="45.08097" lon="5.61411">
        <ele>1709.7</ele>
        <time>2017-06-13T06:33:20.000Z</time>
      </trkpt>
      <trkpt lat="45.08075" lon="5.61416">
        <ele>1685.5</ele>
        <time>2017-06-13T06:33:30.000Z</time>
      </trkpt>
      <trkpt lat="45.08017" lon="5.61434">
        <ele>1666.1</ele>
        <time>2017-06-13T06:33:50.000Z</time>
      </trkpt>
      <trkpt lat="45.07978" lon="5.61458">
        <ele>1654.9</ele>
        <time>2017-06-13T06:34:00.000Z</time>
      </trkpt>
      <trkpt lat="45.07938" lon="5.61464">
        <ele>1639.6</ele>
        <time>2017-06-13T06:34:10.000Z</time>
      </trkpt>
      <trkpt lat="45.07907" lon="5.6146">
        <ele>1632.7</ele>
        <time>2017-06-13T06:34:20.000Z</time>
      </trkpt>
      <trkpt lat="45.07902" lon="5.61457">
        <ele>1629.3</ele>
        <time>2017-06-13T06:34:40.000Z</time>
      </trkpt>
      <trkpt lat="45.07943" lon="5.615">
        <ele>1623.1</ele>
        <time>2017-06-13T06:35:30.000Z</time>
      </trkpt>
      <trkpt lat="45.08018" lon="5.61532">
        <ele>1614.3</ele>
        <time>2017-06-13T06:35:50.000Z</time>
      </trkpt>
      <trkpt lat="45.0808" lon="5.61553">
        <ele>1606.4</ele>
        <time>2017-06-13T06:36:10.000Z</time>
      </trkpt>
      <trkpt lat="45.08102" lon="5.61582">
        <ele>1604.9</ele>
        <time>2017-06-13T06:36:40.000Z</time>
      </trkpt>
      <trkpt lat="45.08121" lon="5.61588">
        <ele>1599.4</ele>
        <time>2017-06-13T06:37:00.000Z</time>
      </trkpt>
      <trkpt lat="45.08143" lon="5.61591">
        <ele>1590.8</ele>
        <time>2017-06-13T06:37:20.000Z</time>
      </trkpt>
      <trkpt lat="45.08148" lon="5.61597">
        <ele>1588.9</ele>
        <time>2017-06-13T06:37:30.000Z</time>
      </trkpt>
      <trkpt lat="45.08145" lon="5.61605">
        <ele>1586.7</ele>
        <time>2017-06-13T06:37:50.000Z</time>
      </trkpt>
      <trkpt lat="45.08161" lon="5.61623">
        <ele>1587.6</ele>
        <time>2017-06-13T06:38:10.000Z</time>
      </trkpt>
      <trkpt lat="45.0819" lon="5.61634">
        <ele>1586.3</ele>
        <time>2017-06-13T06:38:30.000Z</time>
      </trkpt>
      <trkpt lat="45.08214" lon="5.61633">
        <ele>1585.3</ele>
        <time>2017-06-13T06:38:40.000Z</time>
      </trkpt>
      <trkpt lat="45.08237" lon="5.61632">
        <ele>1584.2</ele>
        <time>2017-06-13T06:38:50.000Z</time>
      </trkpt>
      <trkpt lat="45.08252" lon="5.61629">
        <ele>1565.8</ele>
        <time>2017-06-13T06:39:10.000Z</time>
      </trkpt>
      <trkpt lat="45.08254" lon="5.61638">
        <ele>1558.9</ele>
        <time>2017-06-13T06:39:20.000Z</time>
      </trkpt>
      <trkpt lat="45.0824" lon="5.6167">
        <ele>1554.1</ele>
        <time>2017-06-13T06:39:40.000Z</time>
      </trkpt>
      <trkpt lat="45.08235" lon="5.61694">
        <ele>1549.4</ele>
        <time>2017-06-13T06:39:50.000Z</time>
      </trkpt>
      <trkpt lat="45.08211" lon="5.6174">
        <ele>1551</ele>
        <time>2017-06-13T06:40:10.000Z</time>
      </trkpt>
      <trkpt lat="45.08201" lon="5.61751">
        <ele>1537.7</ele>
        <time>2017-06-13T06:40:20.000Z</time>
      </trkpt>
      <trkpt lat="45.08197" lon="5.61762">
        <ele>1527.9</ele>
        <time>2017-06-13T06:40:30.000Z</time>
      </trkpt>
      <trkpt lat="45.08197" lon="5.61769">
        <ele>1511.6</ele>
        <time>2017-06-13T06:40:40.000Z</time>
      </trkpt>
      <trkpt lat="45.08225" lon="5.61775">
        <ele>1483.8</ele>
        <time>2017-06-13T06:41:00.000Z</time>
      </trkpt>
      <trkpt lat="45.08239" lon="5.61803">
        <ele>1472.8</ele>
        <time>2017-06-13T06:41:20.000Z</time>
      </trkpt>
      <trkpt lat="45.08238" lon="5.61818">
        <ele>1473.5</ele>
        <time>2017-06-13T06:41:30.000Z</time>
      </trkpt>
      <trkpt lat="45.08252" lon="5.61857">
        <ele>1470.4</ele>
        <time>2017-06-13T06:41:50.000Z</time>
      </trkpt>
      <trkpt lat="45.08273" lon="5.61881">
        <ele>1459.3</ele>
        <time>2017-06-13T06:42:10.000Z</time>
      </trkpt>
      <trkpt lat="45.08255" lon="5.61912">
        <ele>1451.4</ele>
        <time>2017-06-13T06:42:30.000Z</time>
      </trkpt>
      <trkpt lat="45.08255" lon="5.61931">
        <ele>1445.3</ele>
        <time>2017-06-13T06:42:40.000Z</time>
      </trkpt>
      <trkpt lat="45.08254" lon="5.61944">
        <ele>1436.3</ele>
        <time>2017-06-13T06:42:50.000Z</time>
      </trkpt>
      <trkpt lat="45.08245" lon="5.61959">
        <ele>1427.8</ele>
        <time>2017-06-13T06:43:00.000Z</time>
      </trkpt>
      <trkpt lat="45.08223" lon="5.61978">
        <ele>1417</ele>
        <time>2017-06-13T06:43:20.000Z</time>
      </trkpt>
      <trkpt lat="45.08206" lon="5.62014">
        <ele>1406.2</ele>
        <time>2017-06-13T06:43:40.000Z</time>
      </trkpt>
      <trkpt lat="45.08197" lon="5.62046">
        <ele>1386.8</ele>
        <time>2017-06-13T06:44:00.000Z</time>
      </trkpt>
      <trkpt lat="45.08208" lon="5.62075">
        <ele>1377.1</ele>
        <time>2017-06-13T06:44:10.000Z</time>
      </trkpt>
      <trkpt lat="45.08239" lon="5.62116">
        <ele>1367.3</ele>
        <time>2017-06-13T06:44:30.000Z</time>
      </trkpt>
      <trkpt lat="45.08232" lon="5.62142">
        <ele>1368.6</ele>
        <time>2017-06-13T06:44:40.000Z</time>
      </trkpt>
      <trkpt lat="45.08232" lon="5.62156">
        <ele>1372.3</ele>
        <time>2017-06-13T06:44:50.000Z</time>
      </trkpt>
      <trkpt lat="45.08234" lon="5.62169">
        <ele>1375.8</ele>
        <time>2017-06-13T06:45:00.000Z</time>
      </trkpt>
      <trkpt lat="45.08244" lon="5.62187">
        <ele>1359.3</ele>
        <time>2017-06-13T06:45:20.000Z</time>
      </trkpt>
      <trkpt lat="45.08233" lon="5.62243">
        <ele>1344.7</ele>
        <time>2017-06-13T06:45:40.000Z</time>
      </trkpt>
      <trkpt lat="45.08217" lon="5.62303">
        <ele>1330.8</ele>
        <time>2017-06-13T06:45:50.000Z</time>
      </trkpt>
      <trkpt lat="45.08203" lon="5.62354">
        <ele>1321.3</ele>
        <time>2017-06-13T06:46:00.000Z</time>
      </trkpt>
      <trkpt lat="45.0821" lon="5.62358">
        <ele>1308.1</ele>
        <time>2017-06-13T06:46:10.000Z</time>
      </trkpt>
      <trkpt lat="45.08207" lon="5.62348">
        <ele>1292.6</ele>
        <time>2017-06-13T06:46:30.000Z</time>
      </trkpt>
      <trkpt lat="45.08199" lon="5.62375">
        <ele>1284.6</ele>
        <time>2017-06-13T06:46:50.000Z</time>
      </trkpt>
      <trkpt lat="45.08199" lon="5.62399">
        <ele>1270.3</ele>
        <time>2017-06-13T06:47:00.000Z</time>
      </trkpt>
      <trkpt lat="45.08159" lon="5.62448">
        <ele>1257.6</ele>
        <time>2017-06-13T06:47:20.000Z</time>
      </trkpt>
      <trkpt lat="45.08102" lon="5.6255">
        <ele>1263.2</ele>
        <time>2017-06-13T06:47:40.000Z</time>
      </trkpt>
      <trkpt lat="45.08105" lon="5.62597">
        <ele>1262.4</ele>
        <time>2017-06-13T06:47:50.000Z</time>
      </trkpt>
      <trkpt lat="45.0811" lon="5.62608">
        <ele>1255.8</ele>
        <time>2017-06-13T06:48:00.000Z</time>
      </trkpt>
      <trkpt lat="45.08112" lon="5.62628">
        <ele>1250.6</ele>
        <time>2017-06-13T06:48:10.000Z</time>
      </trkpt>
      <trkpt lat="45.0809" lon="5.62683">
        <ele>1226.1</ele>
        <time>2017-06-13T06:48:30.000Z</time>
      </trkpt>
      <trkpt lat="45.08084" lon="5.62646">
        <ele>1187.8</ele>
        <time>2017-06-13T06:49:10.000Z</time>
      </trkpt>
      <trkpt lat="45.08067" lon="5.62657">
        <ele>1194</ele>
        <time>2017-06-13T06:49:40.000Z</time>
      </trkpt>
      <trkpt lat="45.08061" lon="5.62658">
        <ele>1189.4</ele>
        <time>2017-06-13T06:50:00.000Z</time>
      </trkpt>
      <trkpt lat="45.08059" lon="5.62669">
        <ele>1192.1</ele>
        <time>2017-06-13T06:50:10.000Z</time>
      </trkpt>
      <trkpt lat="45.08019" lon="5.6267">
        <ele>1181.4</ele>
        <time>2017-06-13T06:50:30.000Z</time>
      </trkpt>
      <trkpt lat="45.07992" lon="5.62671">
        <ele>1182.8</ele>
        <time>2017-06-13T06:50:40.000Z</time>
      </trkpt>
      <trkpt lat="45.07976" lon="5.62678">
        <ele>1175.9</ele>
        <time>2017-06-13T06:50:50.000Z</time>
      </trkpt>
      <trkpt lat="45.07925" lon="5.62683">
        <ele>1158.9</ele>
        <time>2017-06-13T06:51:10.000Z</time>
      </trkpt>
      <trkpt lat="45.07899" lon="5.62701">
        <ele>1155.5</ele>
        <time>2017-06-13T06:51:20.000Z</time>
      </trkpt>
      <trkpt lat="45.07885" lon="5.62689">
        <ele>1124.8</ele>
        <time>2017-06-13T06:51:40.000Z</time>
      </trkpt>
      <trkpt lat="45.07885" lon="5.62659">
        <ele>1112.6</ele>
        <time>2017-06-13T06:52:00.000Z</time>
      </trkpt>
      <trkpt lat="45.07886" lon="5.62648">
        <ele>1104.3</ele>
        <time>2017-06-13T06:52:10.000Z</time>
      </trkpt>
      <trkpt lat="45.07882" lon="5.62615">
        <ele>1084.5</ele>
        <time>2017-06-13T06:52:30.000Z</time>
      </trkpt>
      <trkpt lat="45.07871" lon="5.62572">
        <ele>1049.5</ele>
        <time>2017-06-13T06:52:50.000Z</time>
      </trkpt>
      <trkpt lat="45.07855" lon="5.62554">
        <ele>1053.8</ele>
        <time>2017-06-13T06:53:00.000Z</time>
      </trkpt>
      <trkpt lat="45.07848" lon="5.62541">
        <ele>1049.8</ele>
        <time>2017-06-13T06:53:10.000Z</time>
      </trkpt>
      <trkpt lat="45.07844" lon="5.62529">
        <ele>1050.9</ele>
        <time>2017-06-13T06:53:20.000Z</time>
      </trkpt>
      <trkpt lat="45.0784" lon="5.62504">
        <ele>1049.6</ele>
        <time>2017-06-13T06:53:40.000Z</time>
      </trkpt>
      <trkpt lat="45.07814" lon="5.62494">
        <ele>1049.4</ele>
        <time>2017-06-13T06:54:00.000Z</time>
      </trkpt>
      <trkpt lat="45.07795" lon="5.62481">
        <ele>1049.6</ele>
        <time>2017-06-13T06:54:20.000Z</time>
      </trkpt>
      <trkpt lat="45.07783" lon="5.62477">
        <ele>1054.5</ele>
        <time>2017-06-13T06:54:30.000Z</time>
      </trkpt>
      <trkpt lat="45.0776" lon="5.6247">
        <ele>1052.4</ele>
        <time>2017-06-13T06:55:00.000Z</time>
      </trkpt>
      <trkpt lat="45.07737" lon="5.62475">
        <ele>1014.7</ele>
        <time>2017-06-13T06:56:10.000Z</time>
      </trkpt>
      <trkpt lat="45.07718" lon="5.62483">
        <ele>1011.1</ele>
        <time>2017-06-13T06:56:20.000Z</time>
      </trkpt>
      <trkpt lat="45.07717" lon="5.62499">
        <ele>1000.1</ele>
        <time>2017-06-13T06:56:50.000Z</time>
      </trkpt>
      <trkpt lat="45.07711" lon="5.62518">
        <ele>987.7</ele>
        <time>2017-06-13T06:57:10.000Z</time>
      </trkpt>
      <trkpt lat="45.07716" lon="5.62544">
        <ele>980.3</ele>
        <time>2017-06-13T06:57:20.000Z</time>
      </trkpt>
      <trkpt lat="45.07718" lon="5.62569">
        <ele>977</ele>
        <time>2017-06-13T06:57:30.000Z</time>
      </trkpt>
      <trkpt lat="45.0771" lon="5.62602">
        <ele>970.7</ele>
        <time>2017-06-13T06:57:40.000Z</time>
      </trkpt>
      <trkpt lat="45.07708" lon="5.62642">
        <ele>971.5</ele>
        <time>2017-06-13T06:57:50.000Z</time>
      </trkpt>
      <trkpt lat="45.07703" lon="5.62715">
        <ele>963</ele>
        <time>2017-06-13T06:58:10.000Z</time>
      </trkpt>
      <trkpt lat="45.07724" lon="5.62801">
        <ele>948.2</ele>
        <time>2017-06-13T06:58:30.000Z</time>
      </trkpt>
      <trkpt lat="45.07736" lon="5.62831">
        <ele>940.9</ele>
        <time>2017-06-13T06:58:40.000Z</time>
      </trkpt>
      <trkpt lat="45.07744" lon="5.62863">
        <ele>934.8</ele>
        <time>2017-06-13T06:59:00.000Z</time>
      </trkpt>
      <trkpt lat="45.07748" lon="5.62893">
        <ele>920.9</ele>
        <time>2017-06-13T06:59:10.000Z</time>
      </trkpt>
      <trkpt lat="45.07789" lon="5.62987">
        <ele>923.5</ele>
        <time>2017-06-13T06:59:30.000Z</time>
      </trkpt>
      <trkpt lat="45.07793" lon="5.63012">
        <ele>923.6</ele>
        <time>2017-06-13T06:59:40.000Z</time>
      </trkpt>
      <trkpt lat="45.07806" lon="5.63059">
        <ele>917.4</ele>
        <time>2017-06-13T07:00:00.000Z</time>
      </trkpt>
      <trkpt lat="45.07833" lon="5.6313">
        <ele>917.4</ele>
        <time>2017-06-13T07:00:20.000Z</time>
      </trkpt>
      <trkpt lat="45.07841" lon="5.63155">
        <ele>906.9</ele>
        <time>2017-06-13T07:00:30.000Z</time>
      </trkpt>
      <trkpt lat="45.07838" lon="5.6318">
        <ele>908.3</ele>
        <time>2017-06-13T07:00:40.000Z</time>
      </trkpt>
      <trkpt lat="45.07852" lon="5.6326">
        <ele>900</ele>
        <time>2017-06-13T07:01:00.000Z</time>
      </trkpt>
      <trkpt lat="45.07864" lon="5.6329">
        <ele>884.7</ele>
        <time>2017-06-13T07:01:10.000Z</time>
      </trkpt>
      <trkpt lat="45.07874" lon="5.63321">
        <ele>877.4</ele>
        <time>2017-06-13T07:01:20.000Z</time>
      </trkpt>
      <trkpt lat="45.07874" lon="5.63359">
        <ele>865</ele>
        <time>2017-06-13T07:01:40.000Z</time>
      </trkpt>
      <trkpt lat="45.079" lon="5.63437">
        <ele>854.4</ele>
        <time>2017-06-13T07:02:00.000Z</time>
      </trkpt>
      <trkpt lat="45.07761" lon="5.63483">
        <ele>844.7</ele>
        <time>2017-06-13T07:03:30.000Z</time>
      </trkpt>
      <trkpt lat="45.07692" lon="5.63496">
        <ele>836</ele>
        <time>2017-06-13T07:04:20.000Z</time>
      </trkpt>
      <trkpt lat="45.07668" lon="5.63493">
        <ele>809</ele>
        <time>2017-06-13T07:04:40.000Z</time>
      </trkpt>
      <trkpt lat="45.07595" lon="5.63404">
        <ele>684.2</ele>
        <time>2017-06-13T07:05:40.000Z</time>
      </trkpt>
      <trkpt lat="45.0758" lon="5.63449">
        <ele>676.3</ele>
        <time>2017-06-13T07:06:20.000Z</time>
      </trkpt>
      <trkpt lat="45.07557" lon="5.63494">
        <ele>676.6</ele>
        <time>2017-06-13T07:06:30.000Z</time>
      </trkpt>
      <trkpt lat="45.07556" lon="5.63591">
        <ele>657.3</ele>
        <time>2017-06-13T07:06:50.000Z</time>
      </trkpt>
      <trkpt lat="45.07559" lon="5.63636">
        <ele>629.5</ele>
        <time>2017-06-13T07:07:00.000Z</time>
      </trkpt>
      <trkpt lat="45.07551" lon="5.63676">
        <ele>615.5</ele>
        <time>2017-06-13T07:07:10.000Z</time>
      </trkpt>
      <trkpt lat="45.07539" lon="5.63692">
        <ele>607.1</ele>
        <time>2017-06-13T07:07:20.000Z</time>
      </trkpt>
      <trkpt lat="45.07509" lon="5.6374">
        <ele>583.9</ele>
        <time>2017-06-13T07:07:40.000Z</time>
      </trkpt>
      <trkpt lat="45.07495" lon="5.63775">
        <ele>566.1</ele>
        <time>2017-06-13T07:07:50.000Z</time>
      </trkpt>
      <trkpt lat="45.0748" lon="5.63755">
        <ele>550.5</ele>
        <time>2017-06-13T07:08:00.000Z</time>
      </trkpt>
      <trkpt lat="45.07439" lon="5.6371">
        <ele>522.3</ele>
        <time>2017-06-13T07:08:20.000Z</time>
      </trkpt>
      <trkpt lat="45.0739" lon="5.63678">
        <ele>504.1</ele>
        <time>2017-06-13T07:08:40.000Z</time>
      </trkpt>
      <trkpt lat="45.07348" lon="5.6362">
        <ele>490.8</ele>
        <time>2017-06-13T07:09:00.000Z</time>
      </trkpt>
      <trkpt lat="45.07319" lon="5.63608">
        <ele>488.6</ele>
        <time>2017-06-13T07:09:10.000Z</time>
      </trkpt>
      <trkpt lat="45.07254" lon="5.63628">
        <ele>479.8</ele>
        <time>2017-06-13T07:09:30.000Z</time>
      </trkpt>
      <trkpt lat="45.07188" lon="5.63758">
        <ele>469.6</ele>
        <time>2017-06-13T07:09:50.000Z</time>
      </trkpt>
      <trkpt lat="45.07164" lon="5.63799">
        <ele>458.5</ele>
        <time>2017-06-13T07:10:00.000Z</time>
      </trkpt>
      <trkpt lat="45.07106" lon="5.63874">
        <ele>433.8</ele>
        <time>2017-06-13T07:10:20.000Z</time>
      </trkpt>
      <trkpt lat="45.0713" lon="5.63899">
        <ele>406.2</ele>
        <time>2017-06-13T07:11:10.000Z</time>
      </trkpt>
      <trkpt lat="45.07163" lon="5.64041">
        <ele>398.6</ele>
        <time>2017-06-13T07:11:30.000Z</time>
      </trkpt>
      <trkpt lat="45.07152" lon="5.6428">
        <ele>390.5</ele>
        <time>2017-06-13T07:11:50.000Z</time>
      </trkpt>
      <trkpt lat="45.06961" lon="5.64566">
        <ele>379.7</ele>
        <time>2017-06-13T07:12:20.000Z</time>
      </trkpt>
      <trkpt lat="45.06849" lon="5.64664">
        <ele>374.6</ele>
        <time>2017-06-13T07:12:40.000Z</time>
      </trkpt>
      <trkpt lat="45.06775" lon="5.64738">
        <ele>369.9</ele>
        <time>2017-06-13T07:13:00.000Z</time>
      </trkpt>
      <trkpt lat="45.06765" lon="5.64816">
        <ele>367.9</ele>
        <time>2017-06-13T07:13:20.000Z</time>
      </trkpt>
      <trkpt lat="45.06723" lon="5.64841">
        <ele>368.3</ele>
        <time>2017-06-13T07:13:30.000Z</time>
      </trkpt>
      <trkpt lat="45.0668" lon="5.64876">
        <ele>367.8</ele>
        <time>2017-06-13T07:13:40.000Z</time>
      </trkpt>
      <trkpt lat="45.06608" lon="5.64974">
        <ele>366</ele>
        <time>2017-06-13T07:14:00.000Z</time>
      </trkpt>
      <trkpt lat="45.06593" lon="5.65008">
        <ele>366.5</ele>
        <time>2017-06-13T07:14:10.000Z</time>
      </trkpt>
      <trkpt lat="45.06591" lon="5.65027">
        <ele>385.7</ele>
        <time>2017-06-13T07:15:13.000Z</time>
      </trkpt>
      <trkpt lat="45.06647" lon="5.651">
        <ele>374</ele>
        <time>2017-06-13T07:15:52.000Z</time>
      </trkpt>
      <trkpt lat="45.06679" lon="5.65151">
        <ele>373.9</ele>
        <time>2017-06-13T07:16:02.000Z</time>
      </trkpt>
      <trkpt lat="45.06688" lon="5.65203">
        <ele>376.5</ele>
        <time>2017-06-13T07:16:12.000Z</time>
      </trkpt>
      <trkpt lat="45.06611" lon="5.65296">
        <ele>374</ele>
        <time>2017-06-13T07:16:32.000Z</time>
      </trkpt>
      <trkpt lat="45.06545" lon="5.65374">
        <ele>369.5</ele>
        <time>2017-06-13T07:16:52.000Z</time>
      </trkpt>
      <trkpt lat="45.0652" lon="5.65407">
        <ele>367.7</ele>
        <time>2017-06-13T07:17:02.000Z</time>
      </trkpt>
      <trkpt lat="45.06493" lon="5.65446">
        <ele>367.9</ele>
        <time>2017-06-13T07:17:22.000Z</time>
      </trkpt>
      <trkpt lat="45.06474" lon="5.65468">
        <ele>369.5</ele>
        <time>2017-06-13T07:17:42.000Z</time>
      </trkpt>
      <trkpt lat="45.06466" lon="5.65479">
        <ele>370.8</ele>
        <time>2017-06-13T07:18:02.000Z</time>
      </trkpt>
      <trkpt lat="45.06471" lon="5.65497">
        <ele>369.5</ele>
        <time>2017-06-13T07:18:12.000Z</time>
      </trkpt>
      <trkpt lat="45.06527" lon="5.655">
        <ele>365.2</ele>
        <time>2017-06-13T07:18:32.000Z</time>
      </trkpt>
      <trkpt lat="45.06609" lon="5.6553">
        <ele>361.2</ele>
        <time>2017-06-13T07:18:52.000Z</time>
      </trkpt>
      <trkpt lat="45.06675" lon="5.65606">
        <ele>354</ele>
        <time>2017-06-13T07:19:12.000Z</time>
      </trkpt>
      <trkpt lat="45.06709" lon="5.65652">
        <ele>350</ele>
        <time>2017-06-13T07:19:22.000Z</time>
      </trkpt>
      <trkpt lat="45.06739" lon="5.65707">
        <ele>343</ele>
        <time>2017-06-13T07:19:42.000Z</time>
      </trkpt>
      <trkpt lat="45.06783" lon="5.65732">
        <ele>338.6</ele>
        <time>2017-06-13T07:19:52.000Z</time>
      </trkpt>
      <trkpt lat="45.06907" lon="5.65863">
        <ele>332</ele>
        <time>2017-06-13T07:20:12.000Z</time>
      </trkpt>
      <trkpt lat="45.0704" lon="5.65984">
        <ele>324.9</ele>
        <time>2017-06-13T07:20:32.000Z</time>
      </trkpt>
      <trkpt lat="45.07141" lon="5.66111">
        <ele>319.1</ele>
        <time>2017-06-13T07:20:52.000Z</time>
      </trkpt>
      <trkpt lat="45.0719" lon="5.6616">
        <ele>316.6</ele>
        <time>2017-06-13T07:21:02.000Z</time>
      </trkpt>
      <trkpt lat="45.07229" lon="5.66207">
        <ele>313.9</ele>
        <time>2017-06-13T07:21:12.000Z</time>
      </trkpt>
      <trkpt lat="45.073" lon="5.66304">
        <ele>309.3</ele>
        <time>2017-06-13T07:21:32.000Z</time>
      </trkpt>
      <trkpt lat="45.07335" lon="5.66331">
        <ele>306.8</ele>
        <time>2017-06-13T07:21:42.000Z</time>
      </trkpt>
      <trkpt lat="45.07352" lon="5.66356">
        <ele>304.2</ele>
        <time>2017-06-13T07:21:52.000Z</time>
      </trkpt>
      <trkpt lat="45.07421" lon="5.66415">
        <ele>297.3</ele>
        <time>2017-06-13T07:22:12.000Z</time>
      </trkpt>
      <trkpt lat="45.07452" lon="5.66448">
        <ele>293.6</ele>
        <time>2017-06-13T07:22:22.000Z</time>
      </trkpt>
      <trkpt lat="45.07512" lon="5.66489">
        <ele>292.4</ele>
        <time>2017-06-13T07:22:32.000Z</time>
      </trkpt>
      <trkpt lat="45.07584" lon="5.6656">
        <ele>285.1</ele>
        <time>2017-06-13T07:22:52.000Z</time>
      </trkpt>
      <trkpt lat="45.07612" lon="5.66575">
        <ele>281.8</ele>
        <time>2017-06-13T07:23:02.000Z</time>
      </trkpt>
      <trkpt lat="45.07646" lon="5.66605">
        <ele>278.5</ele>
        <time>2017-06-13T07:23:12.000Z</time>
      </trkpt>
      <trkpt lat="45.07682" lon="5.66643">
        <ele>274.6</ele>
        <time>2017-06-13T07:23:22.000Z</time>
      </trkpt>
      <trkpt lat="45.07727" lon="5.66676">
        <ele>273.7</ele>
        <time>2017-06-13T07:23:32.000Z</time>
      </trkpt>
      <trkpt lat="45.07766" lon="5.66711">
        <ele>271.9</ele>
        <time>2017-06-13T07:23:42.000Z</time>
      </trkpt>
      <trkpt lat="45.07813" lon="5.6675">
        <ele>272</ele>
        <time>2017-06-13T07:23:52.000Z</time>
      </trkpt>
      <trkpt lat="45.07827" lon="5.66769">
        <ele>271.6</ele>
        <time>2017-06-13T07:24:02.000Z</time>
      </trkpt>
      <trkpt lat="45.08798" lon="5.67972">
        <ele>270</ele>
        <time>2017-06-13T07:30:03.270Z</time>
      </trkpt>
      <trkpt lat="45.08672" lon="5.68319">
        <ele>269</ele>
        <time>2017-06-13T07:33:51.826Z</time>
      </trkpt>
      <trkpt lat="45.08569" lon="5.686">
        <ele>51.8</ele>
        <time>2017-06-13T07:38:30.000Z</time>
      </trkpt>
      <trkpt lat="45.08954" lon="5.68966">
        <ele>52</ele>
        <time>2017-06-13T07:41:26.386Z</time>
      </trkpt>
      <trkpt lat="45.10178" lon="5.69958">
        <ele>56.2</ele>
        <time>2017-06-13T07:45:21.000Z</time>
      </trkpt>
      <trkpt lat="45.11519" lon="5.69547">
        <ele>51.7</ele>
        <time>2017-06-13T07:49:16.000Z</time>
      </trkpt>
      <trkpt lat="45.11641" lon="5.69575">
        <ele>52</ele>
        <time>2017-06-13T07:51:22.101Z</time>
      </trkpt>
      <trkpt lat="45.12019" lon="5.69582">
        <ele>52</ele>
        <time>2017-06-13T07:52:23.047Z</time>
      </trkpt>
      <trkpt lat="45.12109" lon="5.69427">
        <ele>51.7</ele>
        <time>2017-06-13T07:54:41.000Z</time>
      </trkpt>
      <trkpt lat="45.12446" lon="5.68989">
        <ele>103.7</ele>
        <time>2017-06-13T07:55:47.000Z</time>
      </trkpt>
      <trkpt lat="45.1258" lon="5.69561">
        <ele>103</ele>
        <time>2017-06-13T08:00:00.098Z</time>
      </trkpt>
      <trkpt lat="45.13419" lon="5.68727">
        <ele>102</ele>
        <time>2017-06-13T08:02:06.109Z</time>
      </trkpt>
      <trkpt lat="45.14769" lon="5.69763">
        <ele>101</ele>
        <time>2017-06-13T08:05:15.602Z</time>
      </trkpt>
      <trkpt lat="45.19" lon="5.70049">
        <ele>100</ele>
        <time>2017-06-13T08:16:44.166Z</time>
      </trkpt>
      <trkpt lat="45.20272" lon="5.69013">
        <ele>99</ele>
        <time>2017-06-13T08:20:55.236Z</time>
      </trkpt>
      <trkpt lat="45.20688" lon="5.69801">
        <ele>98</ele>
        <time>2017-06-13T08:26:55.292Z</time>
      </trkpt>
    </trkseg>
  </trk>
</gpx>